Time;durP1;ratioP1;P1;durP2;ratioP2;P2;SDS_P1;SDS_P2;PMS_P1;PMS_P2;Temp;Humidity;BMP_temperature;BMP_pressure;BME280_temperature;BME280_humidity;BME280_pressure;Samples;Min_cycle;Max_cycle;Signal;HPM_P1;HPM_P2
2022/03/25 00:02:10;;;;;;;30.92;12.77;;;5.50;99.90;;;;;;5074951;28;20021;-74
2022/03/25 00:04:35;;;;;;;39.72;11.60;;;5.40;99.90;;;;;;5076723;28;20106;-74
2022/03/25 00:07:01;;;;;;;34.58;12.38;;;5.40;99.90;;;;;;5076463;28;20052;-74
2022/03/25 00:09:27;;;;;;;34.15;12.95;;;5.40;99.90;;;;;;5074801;28;20021;-74
2022/03/25 00:11:53;;;;;;;32.53;14.10;;;5.30;99.90;;;;;;5076704;28;20063;-74
2022/03/25 00:14:19;;;;;;;38.17;14.30;;;5.30;99.90;;;;;;5076155;28;20478;-74
2022/03/25 00:16:45;;;;;;;32.00;12.85;;;5.30;99.90;;;;;;5075982;28;20032;-74
2022/03/25 00:19:12;;;;;;;40.10;15.10;;;5.20;99.90;;;;;;5075772;28;20032;-74
2022/03/25 00:21:38;;;;;;;36.95;13.73;;;5.20;99.90;;;;;;5074637;28;20501;-74
2022/03/25 00:24:04;;;;;;;42.33;15.40;;;5.20;99.90;;;;;;5076075;28;20052;-74
2022/03/25 00:26:30;;;;;;;45.15;15.32;;;5.20;99.90;;;;;;5076008;28;20017;-74
2022/03/25 00:28:56;;;;;;;42.47;16.05;;;5.10;99.90;;;;;;5074776;28;20036;-74
2022/03/25 00:31:22;;;;;;;39.10;16.33;;;5.10;99.90;;;;;;5075637;28;20115;-74
2022/03/25 00:33:50;;;;;;;39.25;14.30;;;5.00;99.90;;;;;;5075591;28;20056;-74
2022/03/25 00:36:18;;;;;;;40.45;14.70;;;5.00;99.90;;;;;;5074190;28;20056;-74
2022/03/25 00:38:44;;;;;;;38.13;15.20;;;5.00;99.90;;;;;;5074139;28;20044;-74
2022/03/25 00:41:12;;;;;;;42.80;17.10;;;5.00;99.90;;;;;;5075497;28;20024;-74
2022/03/25 00:43:38;;;;;;;42.90;15.63;;;5.00;99.90;;;;;;5074208;28;20111;-74
2022/03/25 00:46:04;;;;;;;43.60;16.55;;;5.00;99.90;;;;;;5075427;28;20028;-74
2022/03/25 00:48:30;;;;;;;41.97;15.73;;;4.90;99.90;;;;;;5075369;28;20024;-74
2022/03/25 00:50:56;;;;;;;49.80;15.88;;;4.90;99.90;;;;;;5075144;28;20032;-74
2022/03/25 00:53:21;;;;;;;41.10;15.68;;;4.90;99.90;;;;;;5075335;28;20012;-74
2022/03/25 00:55:47;;;;;;;43.30;16.13;;;4.90;99.90;;;;;;5075285;28;20032;-74
2022/03/25 00:58:14;;;;;;;37.00;13.95;;;4.80;99.90;;;;;;5073813;28;20116;-74
2022/03/25 01:00:41;;;;;;;38.78;14.60;;;4.70;99.90;;;;;;5074515;28;20032;-74
2022/03/25 01:03:07;;;;;;;33.53;13.63;;;4.70;99.90;;;;;;5075024;28;20017;-74
2022/03/25 01:05:33;;;;;;;45.08;16.17;;;4.70;99.90;;;;;;5074969;28;20040;-74
2022/03/25 01:08:00;;;;;;;45.70;16.80;;;4.60;99.90;;;;;;5075026;28;20024;-74
2022/03/25 01:10:26;;;;;;;39.63;15.45;;;4.60;99.90;;;;;;5073737;28;20056;-74
2022/03/25 01:12:51;;;;;;;38.28;16.33;;;4.60;99.90;;;;;;5074898;28;20032;-75
2022/03/25 01:15:17;;;;;;;48.22;15.93;;;4.60;99.90;;;;;;5075059;28;20070;-74
2022/03/25 01:17:46;;;;;;;39.88;15.90;;;4.60;99.90;;;;;;5074647;28;20028;-74
2022/03/25 01:20:11;;;;;;;38.85;16.85;;;4.60;99.90;;;;;;5074611;28;20035;-74
2022/03/25 01:22:37;;;;;;;40.58;16.67;;;4.60;99.90;;;;;;5073353;28;20390;-74
2022/03/25 01:25:03;;;;;;;39.05;14.93;;;4.50;99.90;;;;;;5073339;28;20480;-74
2022/03/25 01:27:29;;;;;;;45.08;16.20;;;4.50;99.90;;;;;;5073260;28;20119;-75
2022/03/25 01:29:54;;;;;;;46.38;15.57;;;4.50;99.90;;;;;;5074440;28;20115;-74
2022/03/25 01:32:20;;;;;;;46.72;16.75;;;4.40;99.90;;;;;;5075656;28;20078;-74
2022/03/25 01:34:46;;;;;;;46.20;17.23;;;4.40;99.90;;;;;;5094756;28;20031;-74
2022/03/25 01:37:11;;;;;;;46.00;17.30;;;4.40;99.90;;;;;;5094574;28;20020;-74
2022/03/25 01:39:37;;;;;;;48.38;17.92;;;4.30;99.90;;;;;;5094997;28;20024;-74
2022/03/25 01:42:03;;;;;;;45.53;17.83;;;4.30;99.90;;;;;;5093519;28;20058;-74
2022/03/25 01:44:31;;;;;;;52.10;18.88;;;4.30;99.90;;;;;;5075636;28;20031;-74
2022/03/25 01:46:59;;;;;;;42.20;16.48;;;4.30;99.90;;;;;;5074395;28;20028;-75
2022/03/25 01:49:25;;;;;;;48.95;16.67;;;4.20;99.90;;;;;;5073005;28;20031;-74
2022/03/25 01:51:55;;;;;;;45.53;17.92;;;4.20;99.90;;;;;;5074349;28;20039;-74
2022/03/25 01:54:23;;;;;;;43.22;17.65;;;4.10;99.90;;;;;;5091090;28;20024;-74
2022/03/25 01:57:18;;;;;;;52.85;18.58;;;4.10;99.90;;;;;;5094724;28;20024;-74
2022/03/25 01:59:44;;;;;;;51.10;16.92;;;4.10;99.90;;;;;;5091969;28;20032;-74
2022/03/25 02:02:11;;;;;;;50.30;18.10;;;4.10;99.90;;;;;;5093075;28;20017;-74
2022/03/25 02:04:37;;;;;;;47.83;17.92;;;4.10;99.90;;;;;;5086498;28;20064;-74
2022/03/25 02:07:04;;;;;;;50.90;18.48;;;4.00;99.90;;;;;;5094458;28;20023;-74
2022/03/25 02:09:31;;;;;;;50.88;19.10;;;4.00;99.90;;;;;;5081548;28;20024;-74
2022/03/25 02:11:57;;;;;;;56.75;17.48;;;4.00;99.90;;;;;;5073525;28;20465;-74
2022/03/25 02:14:23;;;;;;;49.20;18.48;;;4.00;99.90;;;;;;5082299;28;20103;-74
2022/03/25 02:16:49;;;;;;;44.50;17.65;;;3.90;99.90;;;;;;5094193;28;20028;-74
2022/03/25 02:19:19;;;;;;;46.58;18.20;;;3.90;99.90;;;;;;5094130;28;20020;-74
2022/03/25 02:21:47;;;;;;;55.35;17.65;;;3.80;99.90;;;;;;5094229;28;20023;-74
2022/03/25 02:24:14;;;;;;;50.10;18.80;;;3.80;99.90;;;;;;5086143;28;20028;-74
2022/03/25 02:26:40;;;;;;;47.78;18.55;;;3.70;99.90;;;;;;5073825;28;20146;-74
2022/03/25 02:29:08;;;;;;;48.10;17.98;;;3.70;99.90;;;;;;5073557;28;20028;-74
2022/03/25 02:31:34;;;;;;;46.42;16.83;;;3.70;99.90;;;;;;5073644;28;20029;-75
2022/03/25 02:34:05;;;;;;;44.97;18.00;;;3.60;99.90;;;;;;5078491;28;20087;-74
2022/03/25 02:36:41;;;;;;;47.50;17.83;;;3.60;99.90;;;;;;5094019;28;20032;-74
2022/03/25 02:39:09;;;;;;;56.40;18.33;;;3.50;99.90;;;;;;5092144;28;20065;-74
2022/03/25 02:41:35;;;;;;;47.80;18.33;;;3.50;99.90;;;;;;5093773;28;20035;-74
2022/03/25 02:44:01;;;;;;;50.53;19.38;;;3.40;99.90;;;;;;5086753;28;20478;-74
2022/03/25 02:46:27;;;;;;;53.10;19.95;;;3.50;99.90;;;;;;5073327;28;20404;-74
2022/03/25 02:48:53;;;;;;;50.75;19.05;;;3.30;99.90;;;;;;5071921;28;20115;-74
2022/03/25 02:51:19;;;;;;;70.07;20.52;;;3.30;99.90;;;;;;5073192;28;20029;-74
2022/03/25 02:53:44;;;;;;;49.55;19.77;;;3.30;99.90;;;;;;5074419;28;20371;-74
2022/03/25 02:56:10;;;;;;;55.72;19.95;;;3.30;99.90;;;;;;5093393;28;20102;-74
2022/03/25 02:58:36;;;;;;;50.45;17.52;;;3.20;99.90;;;;;;5093509;28;20363;-74
2022/03/25 03:01:03;;;;;;;52.72;19.60;;;3.20;99.90;;;;;;5093325;28;20066;-74
2022/03/25 03:03:29;;;;;;;52.17;18.73;;;3.20;99.90;;;;;;5094161;28;20365;-74
2022/03/25 03:05:54;;;;;;;47.33;17.92;;;3.10;99.90;;;;;;5072020;28;20504;-74
2022/03/25 03:08:20;;;;;;;55.47;20.35;;;3.10;99.90;;;;;;5073646;28;20017;-75
2022/03/25 03:10:46;;;;;;;55.72;20.55;;;3.10;99.90;;;;;;5073598;28;20386;-75
2022/03/25 03:13:13;;;;;;;54.78;19.48;;;3.00;99.90;;;;;;5072029;28;20170;-75
2022/03/25 03:15:38;;;;;;;51.10;18.88;;;3.00;99.90;;;;;;5090942;28;20550;-75
2022/03/25 03:18:04;;;;;;;59.58;19.35;;;3.00;99.90;;;;;;5094179;28;20028;-75
2022/03/25 03:20:30;;;;;;;55.55;20.42;;;2.90;99.90;;;;;;5092053;28;20016;-76
2022/03/25 03:22:57;;;;;;;51.88;21.05;;;2.80;99.90;;;;;;5092280;28;20024;-76
2022/03/25 03:25:23;;;;;;;53.97;20.33;;;2.80;99.90;;;;;;5081245;28;20036;-76
2022/03/25 03:27:49;;;;;;;56.60;21.35;;;2.80;99.90;;;;;;5077565;28;20481;-76
2022/03/25 03:30:15;;;;;;;56.65;20.95;;;2.80;99.90;;;;;;5075562;28;20094;-75
2022/03/25 03:32:40;;;;;;;61.30;21.75;;;2.80;99.90;;;;;;5077135;28;20021;-75
2022/03/25 03:35:07;;;;;;;59.42;21.98;;;2.70;99.90;;;;;;5089677;28;20092;-75
2022/03/25 03:37:43;;;;;;;58.72;20.63;;;2.70;99.90;;;;;;5097906;28;20028;-75
2022/03/25 03:40:10;;;;;;;56.42;19.38;;;2.60;99.90;;;;;;5095772;28;20024;-75
2022/03/25 03:42:36;;;;;;;55.80;20.30;;;2.60;99.90;;;;;;5096830;28;20035;-75
2022/03/25 03:45:03;;;;;;;59.42;20.63;;;2.60;99.90;;;;;;5084618;28;20016;-75
2022/03/25 03:47:29;;;;;;;57.90;21.58;;;2.60;99.90;;;;;;5076582;28;20020;-75
2022/03/25 03:49:55;;;;;;;62.95;22.02;;;2.50;99.90;;;;;;5075234;28;20363;-75
2022/03/25 03:52:21;;;;;;;60.90;22.63;;;2.50;99.90;;;;;;5077144;28;20032;-75
2022/03/25 03:54:46;;;;;;;60.50;21.77;;;2.50;99.90;;;;;;5076176;28;20532;-75
2022/03/25 03:57:12;;;;;;;56.75;21.23;;;2.50;99.90;;;;;;5076367;28;20035;-75
2022/03/25 03:59:37;;;;;;;68.65;23.48;;;2.50;99.90;;;;;;5074975;28;20031;-75
2022/03/25 04:02:03;;;;;;;60.60;21.42;;;2.50;99.90;;;;;;5076433;28;20107;-75
2022/03/25 04:04:29;;;;;;;65.70;21.15;;;2.50;99.90;;;;;;5086720;28;20073;-75
2022/03/25 04:06:54;;;;;;;61.15;22.15;;;2.40;99.90;;;;;;5096626;28;20069;-75
2022/03/25 04:09:20;;;;;;;57.80;20.13;;;2.40;99.90;;;;;;5095166;28;20058;-75
2022/03/25 04:11:46;;;;;;;66.22;21.75;;;2.40;99.90;;;;;;5096787;28;20028;-76
2022/03/25 04:14:11;;;;;;;65.35;22.23;;;2.40;99.90;;;;;;5089297;28;20079;-76
2022/03/25 04:16:37;;;;;;;68.57;22.48;;;2.30;99.90;;;;;;5075319;28;20470;-76
2022/03/25 04:19:03;;;;;;;61.03;21.77;;;2.30;99.90;;;;;;5076442;28;20056;-76
2022/03/25 04:21:28;;;;;;;62.05;21.48;;;2.30;99.90;;;;;;5076367;28;20025;-76
2022/03/25 04:23:54;;;;;;;59.50;21.40;;;2.30;99.90;;;;;;5079788;28;20397;-76
2022/03/25 04:26:20;;;;;;;67.50;22.55;;;2.20;99.90;;;;;;5095786;28;20381;-76
2022/03/25 04:28:45;;;;;;;65.72;22.00;;;2.20;99.90;;;;;;5096857;28;20024;-76
2022/03/25 04:31:11;;;;;;;61.83;21.98;;;2.20;99.90;;;;;;5096748;28;20373;-76
2022/03/25 04:33:37;;;;;;;71.38;21.23;;;2.10;99.90;;;;;;5094548;28;20105;-76
2022/03/25 04:36:03;;;;;;;65.25;21.77;;;2.10;99.90;;;;;;5095179;28;20412;-76
2022/03/25 04:38:28;;;;;;;60.10;22.10;;;2.00;99.90;;;;;;5096466;28;20081;-76
2022/03/25 04:40:54;;;;;;;58.83;21.35;;;2.00;99.90;;;;;;5096336;28;20393;-76
2022/03/25 04:43:20;;;;;;;59.10;20.20;;;2.00;99.90;;;;;;5094173;28;20019;-76
2022/03/25 04:45:46;;;;;;;54.92;19.92;;;1.90;99.90;;;;;;5074369;28;20504;-76
2022/03/25 04:48:12;;;;;;;58.53;22.67;;;1.90;99.90;;;;;;5074129;28;20020;-76
2022/03/25 04:50:38;;;;;;;65.82;23.15;;;1.90;99.90;;;;;;5075371;28;20021;-76
2022/03/25 04:53:04;;;;;;;63.13;22.73;;;1.90;99.90;;;;;;5074406;28;20486;-76
2022/03/25 04:55:30;;;;;;;69.88;22.45;;;1.90;99.90;;;;;;5080385;28;20023;-76
2022/03/25 04:57:56;;;;;;;61.70;23.10;;;1.90;99.90;;;;;;5074453;28;20025;-76
2022/03/25 05:00:22;;;;;;;66.80;22.65;;;1.80;99.90;;;;;;5076198;28;20108;-76
2022/03/25 05:02:47;;;;;;;65.78;22.58;;;1.90;99.90;;;;;;5074618;28;20020;-76
2022/03/25 05:05:13;;;;;;;61.10;22.60;;;1.80;99.90;;;;;;5088469;28;20507;-76
2022/03/25 05:07:43;;;;;;;67.30;22.52;;;1.80;99.90;;;;;;5095209;28;20073;-76
2022/03/25 05:10:11;;;;;;;59.72;21.63;;;2.10;99.90;;;;;;5095582;28;20103;-75
2022/03/25 05:12:38;;;;;;;61.72;21.90;;;1.80;99.90;;;;;;5094369;28;20069;-75
2022/03/25 05:15:04;;;;;;;68.55;21.70;;;1.80;99.90;;;;;;5083336;28;20024;-75
2022/03/25 05:17:30;;;;;;;69.47;24.48;;;1.80;99.90;;;;;;5074145;28;20094;-76
2022/03/25 05:19:56;;;;;;;63.85;23.05;;;1.80;99.90;;;;;;5075138;28;20036;-76
2022/03/25 05:22:21;;;;;;;69.95;23.95;;;1.80;99.90;;;;;;5074077;28;20019;-76
2022/03/25 05:24:50;;;;;;;63.08;23.13;;;1.70;99.90;;;;;;5076084;28;20021;-76
2022/03/25 05:27:16;;;;;;;67.50;22.88;;;1.60;99.90;;;;;;5075128;28;20020;-75
2022/03/25 05:29:42;;;;;;;75.97;23.73;;;1.70;99.90;;;;;;5073420;28;20035;-75
2022/03/25 05:32:08;;;;;;;65.40;22.90;;;1.70;99.90;;;;;;5073353;28;20481;-75
2022/03/25 05:34:34;;;;;;;67.63;24.60;;;1.60;99.90;;;;;;5081802;28;20108;-75
2022/03/25 05:36:59;;;;;;;62.22;22.98;;;1.60;99.90;;;;;;5095326;28;20091;-75
2022/03/25 05:39:25;;;;;;;66.97;22.92;;;1.50;99.90;;;;;;5095021;28;20024;-75
2022/03/25 05:41:51;;;;;;;63.38;22.63;;;1.50;99.90;;;;;;5095914;28;20377;-75
2022/03/25 05:44:17;;;;;;;66.05;23.27;;;1.50;99.90;;;;;;5090361;28;20024;-75
2022/03/25 05:46:43;;;;;;;66.00;23.95;;;1.50;99.90;;;;;;5074628;28;20100;-75
2022/03/25 05:49:09;;;;;;;64.03;22.70;;;1.50;99.90;;;;;;5074612;28;20056;-75
2022/03/25 05:51:34;;;;;;;70.38;24.60;;;1.50;99.90;;;;;;5074297;28;20032;-75
2022/03/25 05:54:00;;;;;;;69.05;23.17;;;1.50;99.90;;;;;;5074855;28;20031;-75
2022/03/25 05:56:26;;;;;;;70.40;22.95;;;1.50;99.90;;;;;;5094392;28;20036;-75
2022/03/25 05:58:51;;;;;;;64.20;22.70;;;1.60;99.90;;;;;;5094561;28;20028;-75
2022/03/25 06:01:17;;;;;;;74.28;24.52;;;1.60;99.90;;;;;;5092697;28;20028;-77
2022/03/25 06:03:44;;;;;;;67.22;22.95;;;1.60;99.90;;;;;;5077256;28;20390;-76
2022/03/25 06:06:09;;;;;;;65.68;23.80;;;1.60;99.90;;;;;;5094512;28;20030;-76
2022/03/25 06:08:39;;;;;;;66.57;22.75;;;1.70;99.90;;;;;;5094378;28;20099;-76
2022/03/25 06:11:05;;;;;;;64.68;21.80;;;1.80;99.90;;;;;;5094301;28;20030;-75
2022/03/25 06:13:31;;;;;;;64.80;23.90;;;1.80;99.90;;;;;;5090809;28;20126;-75
2022/03/25 06:15:56;;;;;;;69.10;23.80;;;1.90;99.90;;;;;;5072742;28;20108;-76
2022/03/25 06:18:22;;;;;;;80.15;26.58;;;1.90;99.90;;;;;;5074311;28;20016;-75
2022/03/25 06:20:48;;;;;;;77.07;24.13;;;2.00;99.90;;;;;;5074043;28;20074;-75
2022/03/25 06:23:14;;;;;;;75.25;25.50;;;2.20;99.90;;;;;;5074383;28;20453;-75
2022/03/25 06:25:41;;;;;;;67.07;24.13;;;2.30;99.90;;;;;;5091804;28;20024;-76
2022/03/25 06:28:07;;;;;;;73.05;25.58;;;2.30;99.90;;;;;;5094154;28;20047;-75
2022/03/25 06:30:35;;;;;;;72.47;24.98;;;2.40;99.90;;;;;;5092535;28;20024;-74
2022/03/25 06:33:02;;;;;;;66.45;25.02;;;2.50;99.90;;;;;;5092562;28;20024;-75
2022/03/25 06:35:28;;;;;;;75.00;26.13;;;2.60;99.90;;;;;;5075975;28;20428;-75
2022/03/25 06:37:55;;;;;;;73.65;25.70;;;2.70;99.90;;;;;;5072215;28;20419;-75
2022/03/25 06:40:21;;;;;;;68.97;25.63;;;2.80;99.90;;;;;;5088301;28;20504;-75
2022/03/25 06:42:47;;;;;;;79.47;26.20;;;2.90;99.90;;;;;;5093971;28;20012;-75
2022/03/25 06:45:15;;;;;;;77.05;27.73;;;3.00;99.90;;;;;;5078837;28;20021;-74
2022/03/25 06:47:40;;;;;;;80.05;26.40;;;3.20;99.90;;;;;;5073507;28;20470;-74
2022/03/25 06:50:08;;;;;;;82.97;27.48;;;3.30;99.90;;;;;;5072133;28;20158;-77
2022/03/25 06:52:34;;;;;;;75.10;26.95;;;3.40;99.90;;;;;;5072432;28;20393;-77
2022/03/25 06:55:03;;;;;;;81.68;28.90;;;3.60;99.90;;;;;;5084034;28;20031;-76
2022/03/25 06:57:29;;;;;;;80.18;28.08;;;3.70;99.90;;;;;;5072075;28;20067;-76
2022/03/25 06:59:55;;;;;;;81.80;28.88;;;3.90;99.90;;;;;;5076331;28;20068;-77
2022/03/25 07:02:24;;;;;;;90.25;30.48;;;4.10;99.90;;;;;;5077903;28;20103;-76
2022/03/25 07:04:50;;;;;;;79.00;29.42;;;4.20;99.90;;;;;;5088221;28;20016;-76
2022/03/25 07:07:19;;;;;;;79.65;29.25;;;4.50;99.90;;;;;;5096700;28;20428;-76
2022/03/25 07:09:44;;;;;;;81.78;29.85;;;4.70;99.90;;;;;;5097656;28;20027;-76
2022/03/25 07:12:12;;;;;;;80.75;30.17;;;4.90;99.90;;;;;;5098237;28;20024;-78
2022/03/25 07:14:37;;;;;;;80.20;29.13;;;5.10;99.90;;;;;;5089186;28;20027;-77
2022/03/25 07:17:03;;;;;;;80.65;32.05;;;5.20;99.90;;;;;;5078323;28;20465;-76
2022/03/25 07:19:29;;;;;;;79.03;29.85;;;5.40;99.90;;;;;;5078416;28;20025;-77
2022/03/25 07:21:57;;;;;;;79.85;30.42;;;5.60;99.90;;;;;;5078753;28;20020;-77
2022/03/25 07:24:23;;;;;;;77.13;29.80;;;5.80;99.90;;;;;;5091659;28;20084;-77
2022/03/25 07:26:48;;;;;;;80.05;29.05;;;5.90;99.90;;;;;;5099941;28;20028;-77
2022/03/25 07:29:14;;;;;;;75.18;29.60;;;6.10;99.90;;;;;;5087383;28;20117;-77
2022/03/25 07:31:40;;;;;;;77.07;29.02;;;6.20;99.90;;;;;;5075834;28;20029;-77
2022/03/25 07:34:06;;;;;;;73.38;28.63;;;6.40;99.90;;;;;;5077504;28;20398;-77
2022/03/25 07:36:32;;;;;;;65.82;27.05;;;6.50;99.90;;;;;;5077336;28;20150;-77
2022/03/25 07:38:58;;;;;;;72.93;28.23;;;6.70;99.90;;;;;;5084695;28;20031;-77
2022/03/25 07:41:23;;;;;;;68.95;27.85;;;6.80;99.90;;;;;;5097481;28;20034;-76
2022/03/25 07:43:51;;;;;;;72.75;28.75;;;7.00;99.90;;;;;;5095916;28;20020;-76
2022/03/25 07:46:16;;;;;;;75.25;28.48;;;7.20;99.90;;;;;;5097002;28;20035;-77
2022/03/25 07:48:42;;;;;;;72.53;30.15;;;7.30;99.90;;;;;;5097022;28;20024;-76
2022/03/25 07:51:08;;;;;;;70.95;28.67;;;7.40;99.90;;;;;;5088912;28;20051;-76
2022/03/25 07:53:34;;;;;;;69.65;28.35;;;7.60;99.90;;;;;;5096814;28;20059;-77
2022/03/25 07:56:00;;;;;;;77.53;27.92;;;7.70;99.90;;;;;;5097028;28;20020;-77
2022/03/25 07:58:26;;;;;;;74.05;27.98;;;7.80;99.90;;;;;;5097265;28;20520;-76
2022/03/25 08:00:52;;;;;;;71.03;27.20;;;8.00;99.90;;;;;;5088373;28;20056;-77
2022/03/25 08:03:18;;;;;;;70.80;28.27;;;8.20;99.90;;;;;;5076771;28;20021;-77
2022/03/25 08:05:47;;;;;;;63.88;26.80;;;8.30;99.90;;;;;;5075604;28;20482;-77
2022/03/25 08:08:13;;;;;;;63.92;26.10;;;8.50;99.90;;;;;;5076898;28;20103;-77
2022/03/25 08:10:39;;;;;;;68.82;27.85;;;8.50;99.90;;;;;;5075276;28;20028;-75
2022/03/25 08:13:05;;;;;;;74.78;27.60;;;8.70;99.90;;;;;;5075047;28;20047;-75
2022/03/25 08:15:34;;;;;;;63.47;26.90;;;8.80;99.90;;;;;;5093001;28;20034;-74
2022/03/25 08:18:00;;;;;;;;;;;8.90;99.90;;;;;;5095631;28;20035;-75
2022/03/25 08:20:37;;;;;;;58.42;24.83;;;9.00;99.90;;;;;;5075070;28;19916;-75
2022/03/25 08:23:04;;;;;;;66.50;25.55;;;9.20;99.90;;;;;;5076088;28;20021;-76
2022/03/25 08:28:15;;;;;;;60.88;26.10;;;9.40;99.90;;;;;;5077221;28;20043;-74
2022/03/25 08:30:42;;;;;;;62.88;24.23;;;9.50;99.90;;;;;;5096050;28;20036;-74
2022/03/25 08:33:09;;;;;;;60.05;24.50;;;9.60;99.90;;;;;;5096316;28;20119;-74
2022/03/25 08:35:35;;;;;;;56.65;23.30;;;9.80;99.90;;;;;;5096333;28;20062;-74
2022/03/25 08:38:01;;;;;;;62.20;25.17;;;9.90;99.90;;;;;;5096505;28;20024;-74
2022/03/25 08:40:29;;;;;;;66.90;24.40;;;10.00;99.90;;;;;;5077777;28;20039;-74
2022/03/25 08:42:55;;;;;;;56.97;23.30;;;10.20;99.90;;;;;;5075168;28;20020;-74
2022/03/25 08:45:20;;;;;;;63.25;23.42;;;10.30;99.90;;;;;;5074815;28;20107;-74
2022/03/25 08:47:48;;;;;;;55.80;23.13;;;10.40;99.90;;;;;;5076662;28;20025;-75
2022/03/25 08:50:16;;;;;;;54.55;23.80;;;10.50;99.90;;;;;;5090433;28;20491;-75
2022/03/25 08:52:45;;;;;;;56.30;21.57;;;10.60;99.90;;;;;;5097304;28;20020;-77
2022/03/25 08:55:11;;;;;;;58.22;22.17;;;10.70;99.90;;;;;;5096652;28;20254;-78
2022/03/25 08:57:38;;;;;;;48.70;21.08;;;10.80;99.90;;;;;;5098148;28;20445;-77
2022/03/25 09:00:10;;;;;;;53.97;21.05;;;10.90;99.90;;;;;;5083280;28;20028;-77
2022/03/25 09:02:36;;;;;;;56.53;22.35;;;11.00;99.90;;;;;;5077419;28;20027;-78
2022/03/25 09:05:04;;;;;;;49.53;21.20;;;11.10;99.90;;;;;;5084083;28;20024;-78
2022/03/25 09:07:30;;;;;;;47.85;21.23;;;11.30;99.90;;;;;;5097456;28;20103;-77
2022/03/25 09:09:56;;;;;;;50.38;21.92;;;11.40;99.90;;;;;;5095283;28;20063;-77
2022/03/25 09:12:23;;;;;;;51.78;21.67;;;11.50;99.90;;;;;;5095468;28;20027;-77
2022/03/25 09:14:48;;;;;;;54.20;22.20;;;11.70;99.90;;;;;;5095547;28;20024;-78
2022/03/25 09:17:14;;;;;;;50.63;21.60;;;11.70;98.80;;;;;;5096238;28;20035;-76
2022/03/25 09:19:40;;;;;;;55.00;20.88;;;11.80;97.60;;;;;;5095989;28;20462;-76
2022/03/25 09:22:05;;;;;;;53.65;20.38;;;11.90;97.10;;;;;;5095581;28;20031;-77
2022/03/25 09:24:31;;;;;;;53.40;20.58;;;12.00;96.80;;;;;;5096617;28;20067;-78
2022/03/25 09:26:56;;;;;;;44.88;19.63;;;12.10;95.60;;;;;;5092203;28;20023;-78
2022/03/25 09:29:22;;;;;;;43.60;17.60;;;12.10;93.90;;;;;;5076132;28;20022;-77
2022/03/25 09:31:48;;;;;;;41.35;18.50;;;12.20;94.50;;;;;;5075929;28;20031;-77
2022/03/25 09:36:58;;;;;;;40.13;17.77;;;12.30;94.30;;;;;;5075660;28;20035;-77
2022/03/25 09:39:23;;;;;;;44.42;17.20;;;12.40;90.50;;;;;;5077240;28;20493;-77
2022/03/25 09:41:50;;;;;;;41.80;15.90;;;12.50;91.40;;;;;;5094631;28;20017;-77
2022/03/25 09:44:16;;;;;;;35.40;14.45;;;12.60;91.20;;;;;;5095362;28;20420;-76
2022/03/25 09:46:42;;;;;;;46.03;15.73;;;12.70;88.40;;;;;;5095053;28;20055;-78
2022/03/25 09:49:09;;;;;;;37.28;14.50;;;12.80;86.80;;;;;;5096203;28;20028;-77
2022/03/25 09:51:36;;;;;;;32.70;14.13;;;12.80;84.50;;;;;;5096595;28;20016;-78
2022/03/25 09:54:02;;;;;;;32.55;13.57;;;13.00;82.40;;;;;;5087320;28;20146;-78
2022/03/25 09:56:28;;;;;;;29.17;12.35;;;13.10;78.70;;;;;;5075737;28;20028;-78
2022/03/25 09:58:54;;;;;;;31.42;12.50;;;13.10;79.40;;;;;;5075594;28;20020;-77
2022/03/25 10:01:20;;;;;;;32.97;12.93;;;13.20;79.10;;;;;;5074804;28;20025;-78
2022/03/25 10:03:46;;;;;;;33.60;12.48;;;13.30;76.60;;;;;;5074429;28;20444;-78
2022/03/25 10:06:12;;;;;;;32.47;11.90;;;13.40;74.70;;;;;;5075907;28;20016;-78
2022/03/25 10:08:38;;;;;;;30.25;12.20;;;13.50;74.20;;;;;;5076046;28;20063;-78
2022/03/25 10:11:27;;;;;;;28.45;11.93;;;13.60;73.20;;;;;;5079018;28;20024;-78
2022/03/25 10:14:18;;;;;;;29.13;12.65;;;13.70;67.80;;;;;;5096038;28;20043;-78
2022/03/25 10:16:45;;;;;;;36.38;13.57;;;13.80;68.90;;;;;;5094691;28;20035;-78
2022/03/25 10:19:18;;;;;;;35.33;13.73;;;13.90;72.30;;;;;;5095892;28;20016;-77
2022/03/25 10:21:59;;;;;;;30.98;12.48;;;13.90;70.00;;;;;;5094895;28;20052;-78
2022/03/25 10:24:45;;;;;;;40.22;15.75;;;14.00;70.70;;;;;;5078089;28;20024;-77
2022/03/25 10:27:19;;;;;;;35.78;14.32;;;14.10;68.70;;;;;;5073173;28;20024;-77
2022/03/25 10:29:46;;;;;;;30.05;12.38;;;14.30;68.40;;;;;;5074040;28;20074;-77
2022/03/25 10:32:14;;;;;;;27.35;11.75;;;14.40;68.20;;;;;;5074925;28;20146;-78
2022/03/25 10:34:41;;;;;;;32.50;12.00;;;14.60;64.10;;;;;;5073437;28;20021;-77
2022/03/25 10:37:12;;;;;;;34.35;14.02;;;14.50;64.10;;;;;;5085623;28;20515;-77
2022/03/25 10:39:39;;;;;;;32.67;12.95;;;14.60;66.20;;;;;;5094268;28;20051;-74
2022/03/25 10:42:08;;;;;;;32.78;13.38;;;14.70;66.80;;;;;;5093572;28;20020;-74
2022/03/25 10:44:42;;;;;;;29.65;12.88;;;14.80;65.50;;;;;;5093534;28;20016;-74
2022/03/25 10:47:17;;;;;;;38.72;14.40;;;14.90;67.20;;;;;;5073362;28;20028;-74
2022/03/25 10:49:46;;;;;;;32.65;12.73;;;15.00;65.00;;;;;;5073117;28;20052;-74
2022/03/25 10:52:24;;;;;;;35.40;14.43;;;15.10;63.10;;;;;;5072394;28;20077;-77
2022/03/25 10:54:50;;;;;;;35.40;14.10;;;15.20;62.20;;;;;;5074785;28;20107;-74
2022/03/25 10:57:17;;;;;;;30.23;12.32;;;15.20;63.60;;;;;;5075923;28;20357;-77
2022/03/25 10:59:43;;;;;;;29.75;12.13;;;15.30;62.40;;;;;;5080578;28;20032;-77
2022/03/25 11:02:11;;;;;;;32.08;13.07;;;15.40;60.00;;;;;;5093629;28;20342;-77
2022/03/25 11:04:37;;;;;;;31.33;13.38;;;15.40;61.20;;;;;;5093303;28;20030;-77
2022/03/25 11:07:06;;;;;;;30.13;14.43;;;15.60;61.70;;;;;;5083635;28;20482;-77
2022/03/25 11:09:31;;;;;;;32.67;13.43;;;15.80;60.30;;;;;;5072678;28;20466;-78
2022/03/25 11:11:59;;;;;;;36.10;13.45;;;15.80;59.90;;;;;;5074761;28;20052;-77
2022/03/25 11:14:25;;;;;;;38.58;13.07;;;15.90;59.40;;;;;;5081507;28;20081;-78
2022/03/25 11:17:01;;;;;;;33.90;13.93;;;16.00;59.50;;;;;;5093397;28;20123;-78
2022/03/25 11:19:27;;;;;;;33.88;14.45;;;16.10;57.90;;;;;;5081813;28;20314;-77
2022/03/25 11:21:59;;;;;;;31.05;12.82;;;16.20;57.80;;;;;;5074745;28;20108;-78
2022/03/25 11:24:38;;;;;;;36.70;14.45;;;16.30;56.80;;;;;;5094197;28;20496;-78
2022/03/25 11:27:17;;;;;;;32.13;12.43;;;16.40;56.10;;;;;;5095406;28;20020;-77
2022/03/25 11:29:54;;;;;;;33.83;14.13;;;16.50;56.30;;;;;;5094170;28;20027;-77
2022/03/25 11:32:20;;;;;;;32.78;13.73;;;16.70;56.00;;;;;;5094018;28;20037;-78
2022/03/25 11:35:15;;;;;;;34.08;13.18;;;16.90;54.10;;;;;;5073921;28;20158;-77
2022/03/25 11:37:41;;;;;;;33.90;12.93;;;17.00;54.20;;;;;;5068007;28;20040;-78
2022/03/25 11:40:20;;;;;;;29.45;13.75;;;17.10;53.90;;;;;;5074467;28;20024;-77
2022/03/25 11:42:50;;;;;;;34.47;14.52;;;17.10;54.40;;;;;;5091535;28;20315;-78
2022/03/25 11:45:22;;;;;;;38.15;14.40;;;17.10;54.50;;;;;;5096427;28;20146;-78
2022/03/25 11:47:59;;;;;;;41.70;13.68;;;17.20;53.90;;;;;;5098357;28;20489;-77
2022/03/25 11:50:26;;;;;;;33.00;14.73;;;17.30;54.40;;;;;;5098897;28;20024;-77
2022/03/25 11:52:51;;;;;;;36.60;14.88;;;17.50;54.00;;;;;;5097148;28;20072;-77
2022/03/25 11:55:17;;;;;;;33.63;14.57;;;17.60;54.60;;;;;;5096313;28;20024;-75
2022/03/25 11:57:44;;;;;;;35.78;13.65;;;17.70;52.90;;;;;;5076144;28;20036;-75
2022/03/25 12:00:28;;;;;;;31.02;12.63;;;17.80;53.00;;;;;;5074988;28;20058;-76
2022/03/25 12:03:06;;;;;;;33.67;15.20;;;18.00;52.70;;;;;;5074860;28;20098;-75
2022/03/25 12:05:35;;;;;;;34.92;12.98;;;18.20;51.30;;;;;;5095705;28;20031;-75
2022/03/25 12:08:22;;;;;;;32.13;13.57;;;18.40;49.30;;;;;;5096466;28;20016;-76
2022/03/25 12:10:52;;;;;;;36.55;15.93;;;18.40;49.80;;;;;;5096232;28;20099;-76
2022/03/25 12:13:19;;;;;;;31.48;14.23;;;18.50;51.00;;;;;;5094935;28;20437;-76
2022/03/25 12:15:47;;;;;;;44.83;15.23;;;18.50;50.70;;;;;;5096159;28;20074;-75
2022/03/25 12:18:42;;;;;;;31.70;12.18;;;18.50;46.90;;;;;;5089476;28;20047;-74
2022/03/25 12:21:20;;;;;;;33.20;13.32;;;18.50;49.10;;;;;;5094753;28;20115;-73
2022/03/25 12:23:58;;;;;;;34.05;13.57;;;18.80;48.80;;;;;;5096620;28;20028;-73
2022/03/25 12:26:29;;;;;;;29.17;11.82;;;18.90;47.70;;;;;;5088851;28;20070;-74
2022/03/25 12:28:55;;;;;;;29.52;12.57;;;19.10;47.20;;;;;;5076047;28;20039;-73
2022/03/25 12:31:21;;;;;;;33.08;12.70;;;19.30;46.30;;;;;;5075561;28;20021;-74
2022/03/25 12:34:00;;;;;;;33.53;14.55;;;19.50;45.60;;;;;;5075633;28;20025;-73
2022/03/25 12:36:53;;;;;;;30.70;12.98;;;19.80;46.90;;;;;;5075907;28;20490;-72
2022/03/25 12:39:18;;;;;;;29.05;11.80;;;19.80;45.40;;;;;;5075777;28;20101;-74
2022/03/25 12:41:51;;;;;;;27.45;11.35;;;20.00;44.00;;;;;;5092989;28;20099;-73